Time,TemperatureF,DewpointF,PressureIn,WindDirection,WindDirectionDegrees,WindSpeedMPH,WindSpeedGustMPH,Humidity,HourlyPrecipIn,Conditions,Clouds,dailyrainin,SoftwareType,DateUTC
2013-09-18 00:01:00,44.1,42.2,30.40,NE,39,0.0,0.0,93,0.00,,CLR,0.00,VWS V14.01,2013-09-18 04:01:00,
2013-09-18 00:02:00,44.1,42.2,30.40,NE,39,0.0,0.0,93,0.00,,CLR,0.00,VWS V14.01,2013-09-18 04:02:00,
2013-09-18 00:07:00,44.0,42.1,30.40,NE,39,0.0,0.0,93,0.00,,CLR,0.08,VWS V14.01,2013-09-18 04:07:00,
2013-09-18 00:12:00,43.9,42.3,30.40,NE,39,0.0,0.0,94,0.00,,CLR,0.00,VWS V14.01,2013-09-18 04:12:00,
2013-09-18 00:17:00,43.9,42.3,30.39,NE,39,0.0,0.0,94,0.00,,CLR,0.00,VWS V14.01,2013-09-18 04:17:00,
2013-09-18 00:22:00,43.7,42.1,30.39,NE,39,0.0,0.0,94,0.00,,CLR,0.00,VWS V14.01,2013-09-18 04:22:00,
2013-09-18 00:27:00,43.5,41.9,30.39,NE,39,0.0,0.0,94,0.00,,CLR,0.00,VWS V14.01,2013-09-18 04:27:00,
2013-09-18 00:32:00,43.4,41.8,30.39,NE,39,0.0,0.0,94,0.00,,CLR,0.00,VWS V14.01,2013-09-18 04:32:00,
2013-09-18 00:37:00,43.3,41.7,30.39,NE,39,0.0,0.0,94,0.00,,CLR,0.00,VWS V14.01,2013-09-18 04:37:00,
2013-09-18 00:42:00,43.1,41.5,30.39,NE,38,0.0,0.0,94,0.00,,CLR,0.00,VWS V14.01,2013-09-18 04:42:00,
2013-09-18 00:47:00,43.0,41.4,30.39,NE,38,0.0,0.0,94,0.00,,CLR,0.00,VWS V14.01,2013-09-18 04:47:00,
2013-09-18 00:52:00,42.9,41.3,30.39,NE,38,0.0,0.0,94,0.00,,CLR,0.00,VWS V14.01,2013-09-18 04:52:00,
2013-09-18 00:57:00,42.8,41.2,30.39,NE,38,0.0,0.0,94,0.00,,CLR,0.00,VWS V14.01,2013-09-18 04:57:00,
2013-09-18 01:02:00,42.7,41.1,30.39,NE,37,0.0,0.0,94,0.00,,CLR,0.00,VWS V14.01,2013-09-18 05:02:00,
2013-09-18 01:07:00,42.5,40.9,30.39,NE,36,0.0,0.0,94,0.00,,CLR,0.00,VWS V14.01,2013-09-18 05:07:00,
2013-09-18 01:12:00,42.4,40.8,30.39,NE,34,0.0,0.0,94,0.00,,CLR,0.00,VWS V14.01,2013-09-18 05:12:00,
2013-09-18 01:17:00,42.2,40.6,30.39,NNE,33,0.0,0.0,94,0.00,,CLR,0.00,VWS V14.01,2013-09-18 05:17:00,
2013-09-18 01:22:00,42.2,40.6,30.39,NNE,33,0.0,0.0,94,0.00,,CLR,0.00,VWS V14.01,2013-09-18 05:22:00,
2013-09-18 01:27:00,42.2,40.6,30.39,NNE,33,0.0,0.0,94,0.00,,CLR,0.00,VWS V14.01,2013-09-18 05:27:00,
2013-09-18 01:31:00,42.2,40.9,30.39,NNE,33,0.0,0.0,95,0.00,,CLR,0.00,VWS V14.01,2013-09-18 05:31:00,
2013-09-18 01:36:00,42.2,40.9,30.39,NNE,33,0.0,0.0,95,0.00,,CLR,0.08,VWS V14.01,2013-09-18 05:36:00,
2013-09-18 01:41:00,42.1,40.8,30.39,NNE,33,0.0,0.0,95,0.00,,CLR,0.00,VWS V14.01,2013-09-18 05:41:00,
2013-09-18 01:46:00,41.9,40.6,30.39,NNE,33,0.0,0.0,95,0.00,,CLR,0.08,VWS V14.01,2013-09-18 05:46:00,
2013-09-18 01:51:00,41.8,40.5,30.39,NNE,33,0.0,0.0,95,0.00,,CLR,0.00,VWS V14.01,2013-09-18 05:51:00,
2013-09-18 01:56:00,41.7,40.4,30.39,NNE,32,0.0,0.0,95,0.00,,CLR,0.00,VWS V14.01,2013-09-18 05:56:00,
2013-09-18 02:01:00,41.6,40.3,30.39,NNE,31,0.0,0.0,95,0.00,,CLR,0.00,VWS V14.01,2013-09-18 06:01:00,
2013-09-18 02:06:00,41.6,40.3,30.39,NE,40,0.0,0.0,95,0.00,,CLR,0.00,VWS V14.01,2013-09-18 06:06:00,
2013-09-18 02:11:00,41.5,40.2,30.39,NE,40,0.0,0.0,95,0.00,,CLR,0.00,VWS V14.01,2013-09-18 06:11:00,
2013-09-18 02:16:00,41.4,40.1,30.39,NE,40,0.0,0.0,95,0.00,,CLR,0.00,VWS V14.01,2013-09-18 06:16:00,
2013-09-18 02:21:00,41.2,39.9,30.39,NE,40,0.0,0.0,95,0.00,,CLR,0.00,VWS V14.01,2013-09-18 06:21:00,
2013-09-18 02:26:00,41.1,39.8,30.39,NE,40,0.0,0.0,95,0.00,,CLR,0.00,VWS V14.01,2013-09-18 06:26:00,
2013-09-18 02:31:00,41.0,39.7,30.39,NE,40,0.0,0.0,95,0.00,,CLR,0.00,VWS V14.01,2013-09-18 06:31:00,
2013-09-18 02:36:00,40.8,39.5,30.39,NE,40,0.0,0.0,95,0.00,,CLR,0.00,VWS V14.01,2013-09-18 06:36:00,
2013-09-18 02:41:00,40.8,39.5,30.39,NE,40,0.0,0.0,95,0.00,,CLR,0.00,VWS V14.01,2013-09-18 06:41:00,
2013-09-18 02:46:00,41.0,40.0,30.39,NE,40,0.0,0.0,96,0.00,,CLR,0.00,VWS V14.01,2013-09-18 06:46:00,
2013-09-18 02:51:00,41.1,40.0,30.39,NE,40,0.0,0.0,96,0.00,,CLR,0.00,VWS V14.01,2013-09-18 06:51:00,
2013-09-18 02:56:00,41.1,40.0,30.39,NE,40,0.0,0.0,96,0.00,,CLR,0.00,VWS V14.01,2013-09-18 06:56:00,
2013-09-18 03:01:00,41.2,40.2,30.39,NE,40,0.0,0.0,96,0.00,,CLR,0.00,VWS V14.01,2013-09-18 07:01:00,
2013-09-18 03:06:00,41.4,40.3,30.39,NE,40,0.0,1.0,96,0.00,,CLR,0.00,VWS V14.01,2013-09-18 07:06:00,
2013-09-18 03:11:00,41.4,40.3,30.39,NE,40,0.0,1.0,96,0.00,,CLR,0.00,VWS V14.01,2013-09-18 07:11:00,
2013-09-18 03:16:00,41.4,40.3,30.39,NE,40,0.0,1.0,96,0.00,,CLR,0.00,VWS V14.01,2013-09-18 07:16:00,
2013-09-18 03:21:00,41.5,40.5,30.39,NE,40,0.0,1.0,96,0.00,,CLR,0.00,VWS V14.01,2013-09-18 07:21:00,
2013-09-18 03:26:00,41.5,40.5,30.39,NE,40,0.0,1.0,96,0.00,,CLR,0.00,VWS V14.01,2013-09-18 07:26:00,
2013-09-18 03:31:00,41.5,40.7,30.39,NE,40,0.0,0.0,97,0.00,,CLR,0.00,VWS V14.01,2013-09-18 07:31:00,
2013-09-18 03:36:00,41.4,40.6,30.39,NE,40,0.0,0.0,97,0.00,,CLR,0.00,VWS V14.01,2013-09-18 07:36:00,
2013-09-18 03:41:00,41.3,40.2,30.39,NE,40,0.0,0.0,96,0.00,,CLR,0.00,VWS V14.01,2013-09-18 07:41:00,
2013-09-18 03:46:00,41.2,40.2,30.39,NE,40,0.0,0.0,96,0.00,,CLR,0.00,VWS V14.01,2013-09-18 07:46:00,
2013-09-18 03:51:00,41.1,40.0,30.38,NE,40,0.0,0.0,96,0.00,,CLR,0.00,VWS V14.01,2013-09-18 07:51:00,
2013-09-18 03:56:00,41.0,40.2,30.39,NE,40,0.0,0.0,97,0.00,,CLR,0.00,VWS V14.01,2013-09-18 07:56:00,
2013-09-18 04:01:00,40.9,40.1,30.38,NE,40,0.0,0.0,97,0.00,,BKN003,0.00,VWS V14.01,2013-09-18 08:01:00,
2013-09-18 04:06:00,40.8,40.0,30.38,NE,40,0.0,0.0,97,0.00,,BKN003,0.00,VWS V14.01,2013-09-18 08:06:00,
2013-09-18 04:11:00,40.6,39.5,30.38,NE,40,0.0,0.0,96,0.00,,BKN003,0.00,VWS V14.01,2013-09-18 08:11:00,
2013-09-18 04:16:00,40.5,39.5,30.38,NE,40,0.0,0.0,96,0.00,,BKN003,0.00,VWS V14.01,2013-09-18 08:16:00,
2013-09-18 04:21:00,40.3,39.2,30.38,NE,40,0.0,0.0,96,0.00,,BKN003,0.00,VWS V14.01,2013-09-18 08:21:00,
2013-09-18 04:26:00,40.1,39.0,30.38,NE,40,0.0,0.0,96,0.00,,BKN003,0.00,VWS V14.01,2013-09-18 08:26:00,
2013-09-18 04:31:00,40.0,39.0,30.38,NE,40,0.0,0.0,96,0.00,,,0.00,VWS V14.01,2013-09-18 08:31:00,
2013-09-18 04:36:00,39.9,38.8,30.38,NE,40,0.0,0.0,96,0.00,,,0.00,VWS V14.01,2013-09-18 08:36:00,
2013-09-18 04:41:00,39.8,38.8,30.38,NE,40,0.0,0.0,96,0.00,,,0.00,VWS V14.01,2013-09-18 08:41:00,
2013-09-18 04:46:00,39.7,38.7,30.38,NE,40,0.0,0.0,96,0.00,,,0.00,VWS V14.01,2013-09-18 08:46:00,
2013-09-18 04:51:00,39.6,38.6,30.38,NE,40,0.0,0.0,96,0.00,,,0.00,VWS V14.01,2013-09-18 08:51:00,
2013-09-18 04:56:00,39.7,38.9,30.38,NE,40,0.0,0.0,97,0.00,,,0.00,VWS V14.01,2013-09-18 08:56:00,
2013-09-18 05:01:00,39.7,38.9,30.38,NE,40,0.0,0.0,97,0.00,,,0.00,VWS V14.01,2013-09-18 09:01:00,
2013-09-18 05:06:00,39.9,39.1,30.38,NE,40,0.0,0.0,97,0.00,,,0.00,VWS V14.01,2013-09-18 09:06:00,
2013-09-18 05:11:00,40.0,39.2,30.38,NE,40,0.0,0.0,97,0.00,,,0.00,VWS V14.01,2013-09-18 09:11:00,
2013-09-18 05:17:00,40.1,39.3,30.38,NE,40,0.0,0.0,97,0.00,,,0.00,VWS V14.01,2013-09-18 09:17:00,
2013-09-18 05:22:00,40.3,39.5,30.38,NE,40,0.0,0.0,97,0.00,,,0.00,VWS V14.01,2013-09-18 09:22:00,
2013-09-18 05:27:00,40.5,39.7,30.38,NE,40,0.0,0.0,97,0.00,,,0.00,VWS V14.01,2013-09-18 09:27:00,
2013-09-18 05:32:00,40.6,40.1,30.38,NE,40,0.0,0.0,98,0.00,,,0.00,VWS V14.01,2013-09-18 09:32:00,
2013-09-18 05:37:00,40.9,40.4,30.38,NE,40,0.0,0.0,98,0.00,,,0.00,VWS V14.01,2013-09-18 09:37:00,
2013-09-18 05:42:00,41.1,40.6,30.38,NE,40,0.0,0.0,98,0.00,,,0.00,VWS V14.01,2013-09-18 09:42:00,
2013-09-18 05:47:00,41.5,41.0,30.38,NE,40,1.0,2.0,98,0.00,,,0.00,VWS V14.01,2013-09-18 09:47:00,
2013-09-18 05:52:00,41.8,41.3,30.38,NE,40,2.0,2.0,98,0.00,,,0.00,VWS V14.01,2013-09-18 09:52:00,
2013-09-18 05:57:00,42.0,41.5,30.39,NE,40,0.0,2.0,98,0.00,,,0.00,VWS V14.01,2013-09-18 09:57:00,
2013-09-18 06:02:00,42.2,41.7,30.39,NE,40,0.0,0.0,98,0.00,,,0.00,VWS V14.01,2013-09-18 10:02:00,
2013-09-18 06:07:00,42.3,41.8,30.39,NE,40,2.0,2.0,98,0.00,,,0.00,VWS V14.01,2013-09-18 10:07:00,
2013-09-18 06:12:00,42.4,41.9,30.39,NE,40,0.0,2.0,98,0.00,,,0.00,VWS V14.01,2013-09-18 10:12:00,
2013-09-18 06:17:00,42.4,41.9,30.39,NE,40,1.0,3.0,98,0.00,,,0.00,VWS V14.01,2013-09-18 10:17:00,
2013-09-18 06:22:00,42.4,41.9,30.39,NE,40,0.0,3.0,98,0.00,,,0.00,VWS V14.01,2013-09-18 10:22:00,
2013-09-18 06:27:00,42.3,41.8,30.39,NE,40,0.0,3.0,98,0.00,,,0.00,VWS V14.01,2013-09-18 10:27:00,
2013-09-18 06:32:00,41.9,41.4,30.39,NE,41,0.0,0.0,98,0.00,,,0.00,VWS V14.01,2013-09-18 10:32:00,
2013-09-18 06:37:00,42.1,41.6,30.39,NE,38,0.0,2.0,98,0.00,,,0.00,VWS V14.01,2013-09-18 10:37:00,
2013-09-18 06:42:00,42.0,41.5,30.39,NE,41,0.0,2.0,98,0.00,,,0.00,VWS V14.01,2013-09-18 10:42:00,
2013-09-18 06:47:00,41.9,41.4,30.39,NE,41,2.0,2.0,98,0.00,,,0.00,VWS V14.01,2013-09-18 10:47:00,
2013-09-18 06:52:00,41.9,41.4,30.39,NE,40,2.0,3.0,98,0.00,,,0.00,VWS V14.01,2013-09-18 10:52:00,
2013-09-18 06:57:00,41.9,41.4,30.39,NE,41,1.0,3.0,98,0.00,,,0.00,VWS V14.01,2013-09-18 10:57:00,
2013-09-18 07:02:00,41.8,41.3,30.39,NE,41,0.0,2.0,98,0.00,,,0.00,VWS V14.01,2013-09-18 11:02:00,
2013-09-18 07:07:00,41.7,41.2,30.40,NE,42,0.0,3.0,98,0.00,,,0.00,VWS V14.01,2013-09-18 11:07:00,
2013-09-18 07:12:00,41.7,41.2,30.40,NE,42,0.0,3.0,98,0.00,,,0.00,VWS V14.01,2013-09-18 11:12:00,
2013-09-18 07:17:00,41.6,41.1,30.40,NE,42,0.0,3.0,98,0.00,,,0.00,VWS V14.01,2013-09-18 11:17:00,
2013-09-18 07:22:00,41.6,41.1,30.40,NE,42,0.0,3.0,98,0.00,,,0.00,VWS V14.01,2013-09-18 11:22:00,
2013-09-18 07:28:00,41.7,41.2,30.40,NE,42,0.0,3.0,98,0.00,,,0.00,VWS V14.01,2013-09-18 11:28:00,
2013-09-18 07:33:00,41.7,41.2,30.40,NE,42,0.0,2.0,98,0.00,,,0.00,VWS V14.01,2013-09-18 11:33:00,
2013-09-18 07:38:00,41.8,41.5,30.40,NE,42,0.0,2.0,99,0.00,,,0.00,VWS V14.01,2013-09-18 11:38:00,
2013-09-18 07:43:00,41.9,41.4,30.40,NE,42,0.0,2.0,98,0.00,,,0.00,VWS V14.01,2013-09-18 11:43:00,
2013-09-18 07:48:00,41.9,41.4,30.40,NE,42,0.0,3.0,98,0.00,,,0.00,VWS V14.01,2013-09-18 11:48:00,
2013-09-18 07:53:00,42.0,41.7,30.40,NE,42,0.0,3.0,99,0.00,,,0.00,VWS V14.01,2013-09-18 11:53:00,
2013-09-18 07:58:00,42.1,41.6,30.40,NE,42,0.0,3.0,98,0.00,,,0.00,VWS V14.01,2013-09-18 11:58:00,
2013-09-18 08:03:00,42.2,41.9,30.40,NE,42,0.0,0.0,99,0.00,,,0.00,VWS V14.01,2013-09-18 12:03:00,
2013-09-18 08:08:00,42.4,42.1,30.40,NE,42,0.0,1.0,99,0.00,,,0.00,VWS V14.01,2013-09-18 12:08:00,
2013-09-18 08:13:00,42.5,42.2,30.40,NE,42,0.0,1.0,99,0.00,,,0.00,VWS V14.01,2013-09-18 12:13:00,
2013-09-18 08:18:00,42.6,42.3,30.40,NE,42,0.0,1.0,99,0.00,,,0.00,VWS V14.01,2013-09-18 12:18:00,
2013-09-18 08:23:00,42.8,42.5,30.40,NE,42,0.0,1.0,99,0.00,,,0.00,VWS V14.01,2013-09-18 12:23:00,
2013-09-18 08:28:00,43.0,42.7,30.39,NE,42,0.0,1.0,99,0.00,,,0.00,VWS V14.01,2013-09-18 12:28:00,
2013-09-18 08:33:00,43.3,43.0,30.39,NE,42,0.0,2.0,99,0.00,,,0.00,VWS V14.01,2013-09-18 12:33:00,
2013-09-18 08:38:00,43.5,43.2,30.39,NE,42,0.0,2.0,99,0.00,,,0.00,VWS V14.01,2013-09-18 12:38:00,
2013-09-18 08:43:00,43.7,43.4,30.39,NE,42,0.0,2.0,99,0.00,,,0.00,VWS V14.01,2013-09-18 12:43:00,
2013-09-18 08:48:00,43.9,43.6,30.39,NE,42,0.0,2.0,99,0.00,,,0.00,VWS V14.01,2013-09-18 12:48:00,
2013-09-18 08:53:00,44.2,43.9,30.39,NE,42,0.0,2.0,99,0.00,,,0.00,VWS V14.01,2013-09-18 12:53:00,
2013-09-18 08:58:00,44.5,44.2,30.39,North,356,0.0,2.0,99,0.00,,,0.00,VWS V14.01,2013-09-18 12:58:00,
2013-09-18 09:03:00,44.9,44.6,30.39,NE,43,1.0,2.0,99,0.00,,,0.00,VWS V14.01,2013-09-18 13:03:00,
2013-09-18 09:08:00,45.5,45.5,30.39,NE,44,0.0,2.0,100,0.00,,,0.00,VWS V14.01,2013-09-18 13:08:00,
2013-09-18 09:13:00,46.2,46.2,30.39,NE,44,0.0,2.0,100,0.00,,,0.00,VWS V14.01,2013-09-18 13:13:00,
2013-09-18 09:18:00,47.0,47.0,30.39,NE,44,0.0,2.0,100,0.00,,,0.00,VWS V14.01,2013-09-18 13:18:00,
2013-09-18 09:23:00,47.7,47.7,30.39,NE,44,0.0,2.0,100,0.00,,,0.00,VWS V14.01,2013-09-18 13:23:00,
2013-09-18 09:28:00,48.5,48.5,30.39,NE,44,0.0,2.0,100,0.00,,,0.00,VWS V14.01,2013-09-18 13:28:00,
2013-09-18 09:33:00,49.6,49.6,30.39,NE,44,0.0,0.0,100,0.00,,,0.00,VWS V14.01,2013-09-18 13:33:00,
2013-09-18 09:38:00,50.5,50.5,30.39,NE,44,0.0,1.0,100,0.00,,,0.00,VWS V14.01,2013-09-18 13:38:00,
2013-09-18 09:43:00,51.4,51.4,30.39,NE,44,0.0,1.0,100,0.00,,,0.00,VWS V14.01,2013-09-18 13:43:00,
2013-09-18 09:49:00,52.5,52.5,30.39,NE,44,0.0,1.0,100,0.00,,,0.00,VWS V14.01,2013-09-18 13:49:00,
2013-09-18 09:54:00,53.4,53.4,30.39,NE,44,0.0,1.0,100,0.00,,,0.00,VWS V14.01,2013-09-18 13:54:00,
2013-09-18 09:59:00,54.4,53.8,30.38,NE,45,0.0,2.0,98,0.00,,,0.00,VWS V14.01,2013-09-18 13:59:00,
2013-09-18 10:04:00,55.2,54.7,30.38,NE,45,0.0,1.0,98,0.00,,BKN002,0.00,VWS V14.01,2013-09-18 14:04:00,
2013-09-18 10:09:00,56.3,55.2,30.38,SSE,165,0.0,3.0,96,0.00,,BKN002,0.00,VWS V14.01,2013-09-18 14:09:00,
2013-09-18 10:14:00,57.2,55.2,30.38,SSE,165,2.0,3.0,93,0.00,,BKN002,0.00,VWS V14.01,2013-09-18 14:14:00,
2013-09-18 10:19:00,58.1,54.9,30.38,SSE,165,0.0,3.0,89,0.00,,BKN002,0.00,VWS V14.01,2013-09-18 14:19:00,
2013-09-18 10:24:00,58.9,54.4,30.38,SSE,165,0.0,3.0,85,0.00,,BKN002,0.00,VWS V14.01,2013-09-18 14:24:00,
2013-09-18 10:29:00,59.7,54.2,30.38,SSE,165,0.0,4.0,82,0.00,,BKN002,0.00,VWS V14.01,2013-09-18 14:29:00,
2013-09-18 10:34:00,60.4,54.2,30.38,SSE,165,0.0,0.0,80,0.00,,SCT002,0.00,VWS V14.01,2013-09-18 14:34:00,
2013-09-18 10:39:00,61.2,54.6,30.37,South,173,0.0,4.0,79,0.00,,SCT002,0.00,VWS V14.01,2013-09-18 14:39:00,
2013-09-18 10:44:00,61.9,54.3,30.37,South,173,0.0,4.0,76,0.00,,SCT002,0.00,VWS V14.01,2013-09-18 14:44:00,
2013-09-18 10:49:00,62.8,54.8,30.37,South,173,2.0,4.0,75,0.00,,SCT002,0.00,VWS V14.01,2013-09-18 14:49:00,
2013-09-18 10:54:00,63.4,54.2,30.36,South,173,0.0,4.0,72,0.00,,SCT002,0.00,VWS V14.01,2013-09-18 14:54:00,
2013-09-18 10:59:00,64.2,54.6,30.36,South,173,1.0,4.0,71,0.00,,SCT002,0.00,VWS V14.01,2013-09-18 14:59:00,
2013-09-18 11:04:00,64.9,54.1,30.36,South,173,0.0,3.0,68,0.00,,CLR,0.00,VWS V14.01,2013-09-18 15:04:00,
2013-09-18 11:09:00,65.4,53.8,30.36,South,173,1.0,4.0,66,0.00,,CLR,0.00,VWS V14.01,2013-09-18 15:09:00,
2013-09-18 11:14:00,65.8,53.7,30.36,NNE,30,0.0,4.0,65,0.00,,CLR,0.00,VWS V14.01,2013-09-18 15:14:00,
2013-09-18 11:19:00,66.3,53.8,30.35,SSW,192,2.0,4.0,64,0.00,,CLR,0.00,VWS V14.01,2013-09-18 15:19:00,
2013-09-18 11:24:00,66.5,53.5,30.35,SSW,192,3.0,4.0,63,0.00,,CLR,0.00,VWS V14.01,2013-09-18 15:24:00,
2013-09-18 11:29:00,66.6,53.2,30.35,SW,224,0.0,4.0,62,0.00,,CLR,0.00,VWS V14.01,2013-09-18 15:29:00,
2013-09-18 11:34:00,67.3,53.8,30.35,SW,224,3.0,4.0,62,0.00,,CLR,0.00,VWS V14.01,2013-09-18 15:34:00,
2013-09-18 11:39:00,67.6,53.7,30.35,SW,224,2.0,5.0,61,0.00,,CLR,0.00,VWS V14.01,2013-09-18 15:39:00,
2013-09-18 11:45:00,68.0,53.2,30.34,SW,220,2.0,5.0,59,0.00,,CLR,0.00,VWS V14.01,2013-09-18 15:45:00,
2013-09-18 11:50:00,68.2,52.9,30.34,SW,220,0.0,5.0,58,0.00,,CLR,0.00,VWS V14.01,2013-09-18 15:50:00,
2013-09-18 11:55:00,68.6,53.7,30.34,SW,220,0.0,5.0,59,0.00,,CLR,0.00,VWS V14.01,2013-09-18 15:55:00,
2013-09-18 12:00:00,68.9,53.5,30.33,WSW,251,0.0,6.0,58,0.00,,CLR,0.00,VWS V14.01,2013-09-18 16:00:00,
2013-09-18 12:01:00,69.1,53.2,30.33,SW,231,3.0,5.0,57,0.00,,CLR,0.00,VWS V14.01,2013-09-18 16:01:00,
2013-09-18 12:06:00,69.5,53.6,30.33,South,170,0.0,7.0,57,0.00,,CLR,0.00,VWS V14.01,2013-09-18 16:06:00,
2013-09-18 12:11:00,69.8,52.4,30.33,WSW,255,4.0,7.0,54,0.00,,CLR,0.00,VWS V14.01,2013-09-18 16:11:00,
2013-09-18 12:16:00,69.8,51.9,30.33,North,349,3.0,7.0,53,0.00,,CLR,0.00,VWS V14.01,2013-09-18 16:16:00,
2013-09-18 12:21:00,69.8,53.4,30.32,North,355,0.0,7.0,56,0.00,,CLR,0.00,VWS V14.01,2013-09-18 16:21:00,
2013-09-18 12:26:00,70.6,53.2,30.32,North,5,0.0,7.0,54,0.00,,CLR,0.00,VWS V14.01,2013-09-18 16:26:00,
2013-09-18 12:31:00,71.3,52.3,30.32,West,271,3.0,4.0,51,0.00,,CLR,0.08,VWS V14.01,2013-09-18 16:31:00,
2013-09-18 12:36:00,71.6,51.5,30.32,WSW,245,0.0,6.0,49,0.00,,CLR,0.00,VWS V14.01,2013-09-18 16:36:00,
2013-09-18 12:41:00,71.9,53.3,30.32,North,2,2.0,7.0,52,0.00,,CLR,0.00,VWS V14.01,2013-09-18 16:41:00,
2013-09-18 12:46:00,72.4,53.8,30.32,North,355,0.0,7.0,52,0.00,,CLR,0.00,VWS V14.01,2013-09-18 16:46:00,
2013-09-18 12:51:00,73.0,51.6,30.31,WSW,256,3.0,7.0,47,0.00,,CLR,0.00,VWS V14.01,2013-09-18 16:51:00,
2013-09-18 12:56:00,73.0,52.7,30.31,SW,220,5.0,7.0,49,0.00,,CLR,0.00,VWS V14.01,2013-09-18 16:56:00,
2013-09-18 13:01:00,73.4,52.0,30.31,NNW,340,4.0,6.0,47,0.00,,CLR,0.00,VWS V14.01,2013-09-18 17:01:00,
2013-09-18 13:06:00,72.9,52.1,30.31,WSW,257,0.0,6.0,48,0.00,,CLR,0.00,VWS V14.01,2013-09-18 17:06:00,
2013-09-18 13:12:00,73.2,52.4,30.31,SSW,192,3.0,6.0,48,0.00,,CLR,0.00,VWS V14.01,2013-09-18 17:12:00,
2013-09-18 13:17:00,73.3,52.5,30.30,NNE,19,3.0,6.0,48,0.00,,CLR,0.00,VWS V14.01,2013-09-18 17:17:00,
2013-09-18 13:22:00,73.4,53.1,30.30,SW,214,3.0,6.0,49,0.00,,CLR,0.00,VWS V14.01,2013-09-18 17:22:00,
2013-09-18 13:27:00,74.3,53.4,30.30,South,185,5.0,8.0,48,0.00,,CLR,0.00,VWS V14.01,2013-09-18 17:27:00,
2013-09-18 13:32:00,74.8,53.2,30.30,SSW,210,0.0,7.0,47,0.00,,CLR,0.00,VWS V14.01,2013-09-18 17:32:00,
2013-09-18 13:37:00,75.3,51.3,30.29,SSW,210,1.0,7.0,43,0.00,,CLR,0.00,VWS V14.01,2013-09-18 17:37:00,
2013-09-18 13:42:00,75.0,51.6,30.29,SSW,210,0.0,7.0,44,0.00,,CLR,0.00,VWS V14.01,2013-09-18 17:42:00,
2013-09-18 13:47:00,74.8,52.1,30.29,WSW,240,0.0,8.0,45,0.00,,CLR,0.00,VWS V14.01,2013-09-18 17:47:00,
2013-09-18 13:52:00,74.9,52.2,30.29,WSW,240,0.0,8.0,45,0.00,,CLR,0.00,VWS V14.01,2013-09-18 17:52:00,
2013-09-18 13:57:00,75.4,52.6,30.28,WSW,241,1.0,8.0,45,0.00,,CLR,0.00,VWS V14.01,2013-09-18 17:57:00,
2013-09-18 14:02:00,75.8,51.7,30.28,WSW,241,4.0,5.0,43,0.00,,CLR,0.00,VWS V14.01,2013-09-18 18:02:00,
2013-09-18 14:07:00,75.7,51.0,30.28,WSW,248,5.0,7.0,42,0.00,,CLR,0.00,VWS V14.01,2013-09-18 18:07:00,
2013-09-18 14:12:00,75.2,51.2,30.28,WSW,255,3.0,7.0,43,0.00,,CLR,0.00,VWS V14.01,2013-09-18 18:12:00,
2013-09-18 14:17:00,75.2,51.8,30.27,WSW,255,0.0,7.0,44,0.00,,CLR,0.00,VWS V14.01,2013-09-18 18:17:00,
2013-09-18 14:22:00,75.2,51.2,30.27,North,11,0.0,7.0,43,0.00,,CLR,0.00,VWS V14.01,2013-09-18 18:22:00,
2013-09-18 14:27:00,75.5,52.1,30.27,NW,311,0.0,7.0,44,0.00,,CLR,0.00,VWS V14.01,2013-09-18 18:27:00,
2013-09-18 14:32:00,75.7,52.3,30.27,SW,222,0.0,7.0,44,0.00,,CLR,0.00,VWS V14.01,2013-09-18 18:32:00,
2013-09-18 14:37:00,76.2,52.7,30.27,SSW,202,1.0,7.0,44,0.00,,CLR,0.00,VWS V14.01,2013-09-18 18:37:00,
2013-09-18 14:42:00,76.4,51.6,30.26,West,271,2.0,7.0,42,0.00,,CLR,0.00,VWS V14.01,2013-09-18 18:42:00,
2013-09-18 14:47:00,76.4,52.3,30.26,NW,306,0.0,7.0,43,0.00,,CLR,0.00,VWS V14.01,2013-09-18 18:47:00,
2013-09-18 14:52:00,76.4,51.6,30.26,NNW,347,0.0,8.0,42,0.00,,CLR,0.00,VWS V14.01,2013-09-18 18:52:00,
2013-09-18 14:57:00,76.4,52.9,30.26,North,350,0.0,8.0,44,0.00,,CLR,0.00,VWS V14.01,2013-09-18 18:57:00,
2013-09-18 15:02:00,76.8,53.3,30.25,SSW,208,1.0,3.0,44,0.00,,CLR,0.00,VWS V14.01,2013-09-18 19:02:00,
2013-09-18 15:08:00,77.7,54.1,30.25,SSE,163,1.0,7.0,44,0.00,,CLR,0.00,VWS V14.01,2013-09-18 19:08:00,
2013-09-18 15:13:00,78.2,53.9,30.25,South,181,3.0,7.0,43,0.00,,CLR,0.00,VWS V14.01,2013-09-18 19:13:00,
2013-09-18 15:18:00,78.5,52.9,30.25,South,176,0.0,7.0,41,0.00,,CLR,0.00,VWS V14.01,2013-09-18 19:18:00,
2013-09-18 15:23:00,78.9,53.2,30.25,South,176,0.0,7.0,41,0.00,,CLR,0.00,VWS V14.01,2013-09-18 19:23:00,
2013-09-18 15:28:00,78.7,53.0,30.25,South,176,1.0,7.0,41,0.00,,CLR,0.00,VWS V14.01,2013-09-18 19:28:00,
2013-09-18 15:33:00,78.6,52.3,30.24,South,176,0.0,4.0,40,0.00,,CLR,0.00,VWS V14.01,2013-09-18 19:33:00,
2013-09-18 15:38:00,78.4,53.4,30.24,SW,234,7.0,8.0,42,0.00,,CLR,0.00,VWS V14.01,2013-09-18 19:38:00,
2013-09-18 15:43:00,78.0,53.1,30.24,NNE,13,0.0,8.0,42,0.00,,CLR,0.00,VWS V14.01,2013-09-18 19:43:00,
2013-09-18 15:48:00,77.9,53.0,30.24,SSW,203,0.0,8.0,42,0.00,,CLR,0.00,VWS V14.01,2013-09-18 19:48:00,
2013-09-18 15:53:00,78.2,52.6,30.23,WSW,238,4.0,8.0,41,0.00,,CLR,0.00,VWS V14.01,2013-09-18 19:53:00,
2013-09-18 15:58:00,78.1,52.5,30.23,SW,226,3.0,8.0,41,0.00,,CLR,0.00,VWS V14.01,2013-09-18 19:58:00,
2013-09-18 16:03:00,78.3,52.7,30.23,SSW,209,5.0,8.0,41,0.00,,CLR,0.00,VWS V14.01,2013-09-18 20:03:00,
2013-09-18 16:08:00,78.4,52.8,30.23,SSW,202,4.0,8.0,41,0.00,,CLR,0.00,VWS V14.01,2013-09-18 20:08:00,
2013-09-18 16:14:00,78.3,53.3,30.23,SSW,211,0.0,8.0,42,0.00,,CLR,0.00,VWS V14.01,2013-09-18 20:14:00,
2013-09-18 16:19:00,78.5,52.9,30.23,SW,223,1.0,8.0,41,0.00,,CLR,0.00,VWS V14.01,2013-09-18 20:19:00,
2013-09-18 16:24:00,78.5,52.9,30.23,SSW,202,1.0,8.0,41,0.00,,CLR,0.00,VWS V14.01,2013-09-18 20:24:00,
2013-09-18 16:29:00,78.5,53.5,30.23,South,173,0.0,8.0,42,0.00,,CLR,0.00,VWS V14.01,2013-09-18 20:29:00,
2013-09-18 16:34:00,78.8,54.4,30.23,South,184,3.0,5.0,43,0.00,,CLR,0.00,VWS V14.01,2013-09-18 20:34:00,
2013-09-18 16:39:00,78.7,53.7,30.23,SSE,167,0.0,7.0,42,0.00,,CLR,0.00,VWS V14.01,2013-09-18 20:39:00,
2013-09-18 16:44:00,78.4,53.4,30.23,SSW,196,3.0,9.0,42,0.00,,CLR,0.00,VWS V14.01,2013-09-18 20:44:00,
2013-09-18 16:49:00,78.3,53.3,30.23,South,187,0.0,9.0,42,0.00,,CLR,0.00,VWS V14.01,2013-09-18 20:49:00,
2013-09-18 16:54:00,78.5,52.9,30.23,South,190,0.0,9.0,41,0.00,,CLR,0.00,VWS V14.01,2013-09-18 20:54:00,
2013-09-18 16:59:00,78.6,53.0,30.23,SSW,213,5.0,9.0,41,0.00,,CLR,0.00,VWS V14.01,2013-09-18 20:59:00,
2013-09-18 17:04:00,78.2,52.6,30.23,South,180,4.0,10.0,41,0.00,,CLR,0.00,VWS V14.01,2013-09-18 21:04:00,
2013-09-18 17:09:00,77.8,52.9,30.23,South,172,0.0,10.0,42,0.00,,CLR,0.00,VWS V14.01,2013-09-18 21:09:00,
2013-09-18 17:14:00,77.7,52.2,30.23,SSW,199,7.0,10.0,41,0.00,,CLR,0.00,VWS V14.01,2013-09-18 21:14:00,
2013-09-18 17:19:00,77.2,52.4,30.23,South,188,6.0,10.0,42,0.00,,CLR,0.00,VWS V14.01,2013-09-18 21:19:00,
2013-09-18 17:24:00,76.8,52.0,30.23,SSW,204,4.0,10.0,42,0.00,,CLR,0.00,VWS V14.01,2013-09-18 21:24:00,
2013-09-18 17:29:00,76.5,51.7,30.23,South,172,0.0,10.0,42,0.00,,CLR,0.00,VWS V14.01,2013-09-18 21:29:00,
2013-09-18 17:34:00,76.3,52.2,30.23,South,187,5.0,6.0,43,0.00,,CLR,0.00,VWS V14.01,2013-09-18 21:34:00,
2013-09-18 17:39:00,76.4,51.6,30.23,South,188,5.0,8.0,42,0.00,,CLR,0.00,VWS V14.01,2013-09-18 21:39:00,
2013-09-18 17:44:00,76.2,52.1,30.23,SSW,203,3.0,8.0,43,0.00,,CLR,0.00,VWS V14.01,2013-09-18 21:44:00,
2013-09-18 17:49:00,75.8,51.7,30.23,SSW,206,7.0,11.0,43,0.00,,CLR,0.00,VWS V14.01,2013-09-18 21:49:00,
2013-09-18 17:54:00,75.4,52.0,30.23,South,182,5.0,11.0,44,0.00,,CLR,0.00,VWS V14.01,2013-09-18 21:54:00,
2013-09-18 17:59:00,74.9,51.5,30.23,SW,225,2.0,11.0,44,0.00,,CLR,0.00,VWS V14.01,2013-09-18 21:59:00,
2013-09-18 18:04:00,74.4,51.1,30.23,SSE,163,2.0,11.0,44,0.00,,CLR,0.00,VWS V14.01,2013-09-18 22:04:00,
2013-09-18 18:09:00,74.3,51.0,30.23,South,187,5.0,11.0,44,0.00,,CLR,0.00,VWS V14.01,2013-09-18 22:09:00,
2013-09-18 18:14:00,73.8,51.2,30.23,SSW,211,4.0,11.0,45,0.00,,CLR,0.00,VWS V14.01,2013-09-18 22:14:00,
2013-09-18 18:19:00,72.9,50.9,30.23,SSW,197,6.0,11.0,46,0.00,,CLR,0.00,VWS V14.01,2013-09-18 22:19:00,
2013-09-18 18:25:00,72.0,51.3,30.23,SSE,165,5.0,11.0,48,0.00,,CLR,0.00,VWS V14.01,2013-09-18 22:25:00,
2013-09-18 18:30:00,71.2,51.1,30.23,SSW,196,4.0,11.0,49,0.00,,CLR,0.00,VWS V14.01,2013-09-18 22:30:00,
2013-09-18 18:35:00,70.4,50.9,30.23,SSW,194,3.0,10.0,50,0.00,,CLR,0.00,VWS V14.01,2013-09-18 22:35:00,
2013-09-18 18:40:00,69.9,50.4,30.22,SSW,211,2.0,10.0,50,0.00,,CLR,0.00,VWS V14.01,2013-09-18 22:40:00,
2013-09-18 18:45:00,69.3,50.4,30.22,South,185,3.0,10.0,51,0.00,,CLR,0.00,VWS V14.01,2013-09-18 22:45:00,
2013-09-18 18:50:00,68.7,50.4,30.22,SSW,199,1.0,10.0,52,0.00,,CLR,0.00,VWS V14.01,2013-09-18 22:50:00,
2013-09-18 18:55:00,68.1,50.3,30.22,SSW,196,2.0,10.0,53,0.00,,CLR,0.00,VWS V14.01,2013-09-18 22:55:00,
2013-09-18 19:00:00,67.5,50.3,30.22,SSW,196,0.0,0.0,54,0.00,,CLR,0.00,VWS V14.01,2013-09-18 23:00:00,
2013-09-18 19:05:00,67.0,50.3,30.22,SSW,199,3.0,6.0,55,0.00,,CLR,0.00,VWS V14.01,2013-09-18 23:05:00,
2013-09-18 19:10:00,66.5,50.3,30.22,South,173,1.0,6.0,56,0.00,,CLR,0.00,VWS V14.01,2013-09-18 23:10:00,
2013-09-18 19:15:00,66.1,50.4,30.22,SSW,192,2.0,6.0,57,0.00,,CLR,0.00,VWS V14.01,2013-09-18 23:15:00,
2013-09-18 19:20:00,65.6,50.4,30.22,South,191,3.0,6.0,58,0.00,,CLR,0.00,VWS V14.01,2013-09-18 23:20:00,
2013-09-18 19:25:00,65.3,50.2,30.23,SSW,192,3.0,6.0,58,0.00,,CLR,0.00,VWS V14.01,2013-09-18 23:25:00,
2013-09-18 19:30:00,64.9,50.2,30.23,South,189,2.0,3.0,59,0.00,,CLR,0.00,VWS V14.01,2013-09-18 23:30:00,
2013-09-18 19:35:00,64.5,49.9,30.23,South,169,0.0,5.0,59,0.00,,CLR,0.00,VWS V14.01,2013-09-18 23:35:00,
2013-09-18 19:40:00,64.2,50.0,30.23,South,169,5.0,5.0,60,0.00,,CLR,0.00,VWS V14.01,2013-09-18 23:40:00,
2013-09-18 19:45:00,63.8,50.1,30.23,South,182,0.0,6.0,61,0.00,,CLR,0.00,VWS V14.01,2013-09-18 23:45:00,
2013-09-18 19:50:00,63.4,49.7,30.23,ESE,119,3.0,6.0,61,0.00,,CLR,0.00,VWS V14.01,2013-09-18 23:50:00,
2013-09-18 19:55:00,63.1,49.9,30.23,South,179,0.0,6.0,62,0.00,,CLR,0.00,VWS V14.01,2013-09-18 23:55:00,
2013-09-18 20:00:00,62.8,50.0,30.23,South,179,0.0,0.0,63,0.00,,CLR,0.00,VWS V14.01,2013-09-19 00:00:00,
2013-09-18 20:05:00,62.4,50.1,30.23,South,180,5.0,5.0,64,0.00,,CLR,0.00,VWS V14.01,2013-09-19 00:05:00,
2013-09-18 20:10:00,62.2,49.9,30.23,South,169,1.0,6.0,64,0.00,,CLR,0.00,VWS V14.01,2013-09-19 00:10:00,
2013-09-18 20:15:00,62.0,49.7,30.23,SSW,198,0.0,6.0,64,0.00,,CLR,0.00,VWS V14.01,2013-09-19 00:15:00,
2013-09-18 20:20:00,61.8,49.5,30.24,SSW,203,1.0,6.0,64,0.00,,CLR,0.00,VWS V14.01,2013-09-19 00:20:00,
2013-09-18 20:25:00,61.5,50.5,30.24,SSW,206,0.0,6.0,67,0.00,,CLR,0.00,VWS V14.01,2013-09-19 00:25:00,
2013-09-18 20:30:00,61.0,50.0,30.24,SSW,197,0.0,0.0,67,0.00,,CLR,0.00,VWS V14.01,2013-09-19 00:30:00,
2013-09-18 20:36:00,60.4,50.2,30.24,SSW,197,1.0,1.0,69,0.00,,CLR,0.00,VWS V14.01,2013-09-19 00:36:00,
2013-09-18 20:41:00,59.7,50.3,30.24,SSW,192,0.0,1.0,71,0.00,,CLR,0.00,VWS V14.01,2013-09-19 00:41:00,
2013-09-18 20:46:00,59.0,50.0,30.24,NW,309,0.0,3.0,72,0.00,,CLR,0.00,VWS V14.01,2013-09-19 00:46:00,
2013-09-18 20:51:00,58.3,50.1,30.24,NW,309,0.0,3.0,74,0.00,,CLR,0.00,VWS V14.01,2013-09-19 00:51:00,
2013-09-18 20:56:00,57.7,49.8,30.24,NW,309,1.0,3.0,75,0.00,,CLR,0.00,VWS V14.01,2013-09-19 00:56:00,
2013-09-18 21:01:00,57.1,49.6,30.24,NW,309,0.0,0.0,76,0.00,,CLR,0.00,VWS V14.01,2013-09-19 01:01:00,
2013-09-18 21:06:00,56.6,49.5,30.24,NW,309,0.0,0.0,77,0.00,,CLR,0.00,VWS V14.01,2013-09-19 01:06:00,
2013-09-18 21:11:00,56.2,49.4,30.24,NW,308,0.0,0.0,78,0.00,,CLR,0.00,VWS V14.01,2013-09-19 01:11:00,
2013-09-18 21:16:00,55.8,49.4,30.24,NW,308,0.0,0.0,79,0.00,,CLR,0.00,VWS V14.01,2013-09-19 01:16:00,
2013-09-18 21:21:00,55.4,49.0,30.24,NW,308,0.0,0.0,79,0.00,,CLR,0.00,VWS V14.01,2013-09-19 01:21:00,
2013-09-18 21:26:00,55.1,48.7,30.24,NW,308,0.0,0.0,79,0.00,,CLR,0.00,VWS V14.01,2013-09-19 01:26:00,
2013-09-18 21:31:00,54.8,48.8,30.24,NW,308,0.0,0.0,80,0.00,,CLR,0.00,VWS V14.01,2013-09-19 01:31:00,
2013-09-18 21:36:00,54.5,48.8,30.24,NW,308,0.0,0.0,81,0.00,,CLR,0.00,VWS V14.01,2013-09-19 01:36:00,
2013-09-18 21:41:00,54.2,48.5,30.24,NW,308,0.0,0.0,81,0.00,,CLR,0.00,VWS V14.01,2013-09-19 01:41:00,
2013-09-18 21:46:00,53.9,48.5,30.24,NW,308,0.0,0.0,82,0.00,,CLR,0.00,VWS V14.01,2013-09-19 01:46:00,
2013-09-18 21:51:00,53.6,48.6,30.24,NW,308,0.0,0.0,83,0.00,,CLR,0.00,VWS V14.01,2013-09-19 01:51:00,
2013-09-18 21:56:00,53.3,48.6,30.24,NW,308,0.0,0.0,84,0.00,,CLR,0.00,VWS V14.01,2013-09-19 01:56:00,
2013-09-18 22:01:00,53.0,48.3,30.25,NW,308,0.0,0.0,84,0.00,,CLR,0.00,VWS V14.01,2013-09-19 02:01:00,
2013-09-18 22:06:00,52.8,48.1,30.24,NW,308,0.0,0.0,84,0.00,,CLR,0.00,VWS V14.01,2013-09-19 02:06:00,
2013-09-18 22:11:00,52.5,47.8,30.25,NW,308,0.0,0.0,84,0.00,,CLR,0.00,VWS V14.01,2013-09-19 02:11:00,
2013-09-18 22:16:00,52.2,47.8,30.24,NW,308,0.0,0.0,85,0.00,,CLR,0.00,VWS V14.01,2013-09-19 02:16:00,
2013-09-18 22:21:00,52.0,48.0,30.24,NW,308,0.0,0.0,86,0.00,,CLR,0.00,VWS V14.01,2013-09-19 02:21:00,
2013-09-18 22:26:00,51.7,47.7,30.25,NW,309,0.0,0.0,86,0.00,,CLR,0.00,VWS V14.01,2013-09-19 02:26:00,
2013-09-18 22:31:00,51.4,47.4,30.24,NW,309,0.0,0.0,86,0.00,,CLR,0.00,VWS V14.01,2013-09-19 02:31:00,
2013-09-18 22:37:00,51.1,47.1,30.25,NW,309,0.0,0.0,86,0.00,,CLR,0.00,VWS V14.01,2013-09-19 02:37:00,
2013-09-18 22:42:00,50.9,47.2,30.25,NW,308,0.0,0.0,87,0.00,,CLR,0.00,VWS V14.01,2013-09-19 02:42:00,
2013-09-18 22:47:00,50.6,46.9,30.25,NW,309,0.0,0.0,87,0.00,,CLR,0.00,VWS V14.01,2013-09-19 02:47:00,
2013-09-18 22:52:00,50.4,47.0,30.24,NW,309,0.0,0.0,88,0.00,,CLR,0.00,VWS V14.01,2013-09-19 02:52:00,
2013-09-18 22:57:00,50.2,46.8,30.24,NW,309,0.0,0.0,88,0.00,,CLR,0.00,VWS V14.01,2013-09-19 02:57:00,
2013-09-18 23:02:00,50.0,46.9,30.24,NW,308,0.0,1.0,89,0.00,,CLR,0.00,VWS V14.01,2013-09-19 03:02:00,
2013-09-18 23:07:00,49.9,47.1,30.24,NW,309,0.0,1.0,90,0.00,,CLR,0.00,VWS V14.01,2013-09-19 03:07:00,
2013-09-18 23:12:00,49.8,47.0,30.24,NW,309,0.0,1.0,90,0.00,,CLR,0.00,VWS V14.01,2013-09-19 03:12:00,
2013-09-18 23:17:00,49.7,46.9,30.24,NW,309,0.0,1.0,90,0.00,,CLR,0.00,VWS V14.01,2013-09-19 03:17:00,
2013-09-18 23:22:00,49.4,46.6,30.24,NW,309,0.0,1.0,90,0.00,,CLR,0.00,VWS V14.01,2013-09-19 03:22:00,
2013-09-18 23:27:00,49.3,46.8,30.24,NW,308,0.0,1.0,91,0.00,,CLR,0.00,VWS V14.01,2013-09-19 03:27:00,
2013-09-18 23:32:00,49.2,46.7,30.24,NW,309,0.0,0.0,91,0.00,,CLR,0.00,VWS V14.01,2013-09-19 03:32:00,
2013-09-18 23:37:00,49.0,46.5,30.24,NW,309,0.0,0.0,91,0.00,,CLR,0.00,VWS V14.01,2013-09-19 03:37:00,
2013-09-18 23:42:00,48.8,46.3,30.24,NW,308,0.0,0.0,91,0.00,,CLR,0.00,VWS V14.01,2013-09-19 03:42:00,
2013-09-18 23:47:00,48.6,46.1,30.25,NW,308,0.0,0.0,91,0.00,,CLR,0.00,VWS V14.01,2013-09-19 03:47:00,
2013-09-18 23:52:00,48.4,45.9,30.25,NW,308,0.0,0.0,91,0.00,,CLR,0.00,VWS V14.01,2013-09-19 03:52:00,
2013-09-18 23:57:00,48.2,45.7,30.25,NW,308,0.0,0.0,91,0.00,,CLR,0.00,VWS V14.01,2013-09-19 03:57:00,